< < Back
Terminal Aerodrome Forecast


Current Version              Previous Versions:   1  2  3  4  5  6  7  8  9  

Terminal Aerodrome Forecast

704
FTUS42 KGSP 030556 AAA
TAFAVL
TAF AMD
KAVL 030556Z 0306/0406 VRB02KT P6SM BKN002
     FM030900 34007KT P6SM VCSH OVC020
     FM031300 33009G16KT P6SM VCSH BKN045
      TEMPO 0314/0317 4SM -TSRA OVC025CB
     FM040000 34015KT P6SM OVC050=

Latest METAR

700
SAUS70 KWBC 030900 RRD
MTRAVL
METAR KAVL 030854Z AUTO 31003KT 10SM OVC004 16/14 A2988 RMK AO2
RAE17B24E33 SLP096 P0001 60008 T01610144 58008


USA.gov is the U.S. government's official web portal to all federal, state and local government web resources and services.